createdAt,value
2019-04-22T00:00:42.476Z,11.50
2019-04-22T00:03:53.286Z,11.60
2019-04-22T00:07:15.636Z,11.60
2019-04-22T00:10:28.938Z,11.60
2019-04-22T00:13:37.438Z,11.50
2019-04-22T00:16:37.823Z,11.50
2019-04-22T00:19:48.091Z,11.40
2019-04-22T00:22:44.859Z,11.30
2019-04-22T00:29:21.077Z,11.30
2019-04-22T00:32:39.622Z,11.20
2019-04-22T00:35:42.007Z,11.20
2019-04-22T00:38:56.514Z,11.10
2019-04-22T00:41:56.467Z,11.00
2019-04-22T00:48:09.108Z,10.90
2019-04-22T00:51:14.347Z,10.90
2019-04-22T00:54:14.015Z,10.80
2019-04-22T00:57:21.472Z,10.70
2019-04-22T01:00:31.073Z,10.80
2019-04-22T01:03:44.822Z,10.80
2019-04-22T01:06:45.893Z,10.90
2019-04-22T01:09:58.524Z,10.80
2019-04-22T01:12:56.984Z,10.90
2019-04-22T01:16:04.568Z,10.70
2019-04-22T01:19:14.334Z,10.90
2019-04-22T01:22:20.436Z,10.90
2019-04-22T01:25:23.382Z,10.80
2019-04-22T01:28:27.896Z,10.80
2019-04-22T01:31:24.920Z,10.90
2019-04-22T01:34:40.544Z,10.80
2019-04-22T01:37:52.484Z,10.80
2019-04-22T01:41:09.632Z,10.80
2019-04-22T01:44:15.855Z,10.90
2019-04-22T01:47:23.230Z,10.70
2019-04-22T01:50:19.971Z,10.80
2019-04-22T01:53:31.380Z,10.70
2019-04-22T01:56:33.277Z,10.80
2019-04-22T01:59:32.541Z,10.60
2019-04-22T02:02:49.242Z,10.60
2019-04-22T02:05:56.702Z,10.50
2019-04-22T02:09:00.847Z,10.50
2019-04-22T02:12:05.949Z,10.50
2019-04-22T02:15:12.007Z,10.40
2019-04-22T02:21:21.596Z,10.30
2019-04-22T02:24:33.694Z,10.30
2019-04-22T02:27:38.990Z,10.30
2019-04-22T02:31:04.963Z,10.20
2019-04-22T02:36:56.235Z,10.30
2019-04-22T02:40:03.861Z,10.30
2019-04-22T02:43:12.175Z,10.40
2019-04-22T02:49:25.467Z,10.30
2019-04-22T02:52:31.250Z,10.30
2019-04-22T02:55:33.030Z,10.20
2019-04-22T03:01:54.173Z,10.20
2019-04-22T03:04:52.944Z,10.20
2019-04-22T03:20:20.125Z,9.80
2019-04-22T03:26:43.322Z,9.70
2019-04-22T03:36:58.260Z,9.40
2019-04-22T03:39:38.014Z,9.30
2019-04-22T03:42:45.686Z,9.30
2019-04-22T03:49:01.133Z,9.30
2019-04-22T03:52:05.402Z,9.10
2019-04-22T03:55:03.265Z,9.00
2019-04-22T03:57:57.204Z,9.10
2019-04-22T04:01:21.889Z,9.00
2019-04-22T04:07:40.587Z,9.00
2019-04-22T04:10:35.320Z,8.90
2019-04-22T04:13:33.756Z,8.90
2019-04-22T04:16:52.221Z,8.80
2019-04-22T04:20:05.710Z,9.00
2019-04-22T04:32:31.070Z,9.20
2019-04-22T04:35:33.194Z,9.20
2019-04-22T04:38:24.368Z,9.40
2019-04-22T04:41:41.864Z,9.70
2019-04-22T04:47:49.206Z,10.90
2019-04-22T04:51:05.105Z,11.70
2019-04-22T04:54:10.341Z,12.40
2019-04-22T04:56:56.746Z,13.00
2019-04-22T05:03:23.426Z,14.10
2019-04-22T05:06:33.089Z,14.50
2019-04-22T05:09:38.568Z,15.00
2019-04-22T05:12:45.684Z,15.40
2019-04-22T05:15:57.670Z,15.70
2019-04-22T05:18:45.844Z,16.10
2019-04-22T05:21:54.539Z,16.50
2019-04-22T05:24:58.272Z,16.80
2019-04-22T05:27:57.905Z,17.10
2019-04-22T05:31:10.036Z,17.40
2019-04-22T05:34:09.650Z,17.70
2019-04-22T05:37:22.195Z,18.10
2019-04-22T05:40:54.521Z,18.40
2019-04-22T05:43:38.554Z,18.80
2019-04-22T05:46:34.801Z,19.20
2019-04-22T05:49:41.715Z,19.70
2019-04-22T05:52:54.245Z,20.20
2019-04-22T05:56:04.218Z,20.70
2019-04-22T05:59:11.681Z,21.10
2019-04-22T06:05:17.327Z,21.70
2019-04-22T06:08:25.632Z,22.00
2019-04-22T06:11:31.254Z,22.10
2019-04-22T06:14:37.078Z,22.10
2019-04-22T06:17:55.716Z,21.90
2019-04-22T06:21:03.973Z,21.30
2019-04-22T06:24:13.925Z,20.90
2019-04-22T06:27:19.109Z,20.20
2019-04-22T06:30:15.705Z,19.80
2019-04-22T06:33:23.222Z,19.60
2019-04-22T06:36:30.626Z,19.70
2019-04-22T06:39:34.299Z,19.90
2019-04-22T06:42:44.117Z,20.30
2019-04-22T06:45:43.800Z,20.60
2019-04-22T06:48:52.462Z,21.00
2019-04-22T06:52:06.006Z,21.30
2019-04-22T06:55:13.582Z,21.50
2019-04-22T06:58:10.357Z,21.70
2019-04-22T07:01:24.469Z,21.90
2019-04-22T07:04:23.238Z,22.00
2019-04-22T07:07:24.028Z,22.20
2019-04-22T07:13:42.891Z,22.80
2019-04-22T07:16:54.299Z,22.80
2019-04-22T07:19:52.264Z,22.90
2019-04-22T07:23:06.807Z,23.00
2019-04-22T07:26:05.999Z,23.00
2019-04-22T07:29:17.071Z,23.10
2019-04-22T07:32:25.348Z,23.30
2019-04-22T07:35:30.831Z,23.30
2019-04-22T07:38:26.869Z,23.40
2019-04-22T07:41:37.908Z,23.40
2019-04-22T07:44:45.038Z,23.50
2019-04-22T07:47:52.436Z,23.60
2019-04-22T07:51:05.477Z,23.70
2019-04-22T07:54:01.801Z,23.70
2019-04-22T07:57:15.082Z,23.80
2019-04-22T08:00:15.980Z,23.90
2019-04-22T08:03:30.362Z,23.90
2019-04-22T08:06:29.318Z,24.00
2019-04-22T08:09:35.604Z,24.10
2019-04-22T08:15:47.080Z,23.80
2019-04-22T08:18:52.651Z,23.60
2019-04-22T08:21:59.171Z,23.50
2019-04-22T08:28:13.385Z,23.60
2019-04-22T08:31:20.303Z,23.60
2019-04-22T08:40:43.241Z,23.50
2019-04-22T08:43:56.230Z,23.70
2019-04-22T08:46:48.675Z,23.70
2019-04-22T08:50:03.203Z,23.80
2019-04-22T08:53:08.086Z,23.90
2019-04-22T08:56:24.055Z,23.90
2019-04-22T09:02:28.858Z,24.00
2019-04-22T09:05:46.020Z,23.90
2019-04-22T09:08:34.243Z,24.00
2019-04-22T09:14:45.283Z,24.00
2019-04-22T09:18:00.459Z,23.90
2019-04-22T09:21:08.532Z,24.00
2019-04-22T09:24:14.890Z,24.00
2019-04-22T09:27:22.498Z,23.90
2019-04-22T09:30:26.026Z,23.90
2019-04-22T09:39:34.509Z,24.10
2019-04-22T09:42:44.253Z,24.20
2019-04-22T09:45:48.328Z,24.30
2019-04-22T09:49:05.238Z,24.40
2019-04-22T09:52:01.424Z,24.40
2019-04-22T09:55:12.477Z,24.70
2019-04-22T09:58:16.211Z,24.50
2019-04-22T10:01:30.709Z,24.50
2019-04-22T10:04:27.330Z,24.30
2019-04-22T10:07:31.946Z,24.10
2019-04-22T10:10:46.495Z,24.10
2019-04-22T10:13:47.847Z,24.10
2019-04-22T10:16:51.402Z,24.10
2019-04-22T10:20:10.581Z,24.30
2019-04-22T10:23:05.440Z,24.40
2019-04-22T10:26:19.486Z,24.30
2019-04-22T10:29:17.014Z,24.30
2019-04-22T10:32:19.116Z,24.30
2019-04-22T10:35:14.697Z,24.20
2019-04-22T10:38:36.771Z,24.10
2019-04-22T10:41:41.241Z,24.10
2019-04-22T10:44:46.846Z,24.00
2019-04-22T10:47:52.244Z,24.00
2019-04-22T10:50:56.856Z,24.20
2019-04-22T10:54:01.822Z,24.20
2019-04-22T10:57:06.712Z,24.20
2019-04-22T11:00:13.625Z,24.30
2019-04-22T11:03:18.307Z,24.30
2019-04-22T11:06:23.330Z,24.20
2019-04-22T11:09:28.943Z,24.20
2019-04-22T11:12:35.687Z,23.90
2019-04-22T11:15:42.487Z,23.80
2019-04-22T11:18:47.560Z,24.00
2019-04-22T11:22:03.821Z,23.90
2019-04-22T11:24:59.917Z,23.80
2019-04-22T11:28:05.556Z,23.60
2019-04-22T11:31:10.470Z,23.50
2019-04-22T11:34:15.365Z,23.40
2019-04-22T11:37:20.674Z,23.30
2019-04-22T11:40:36.403Z,23.30
2019-04-22T11:43:32.562Z,23.20
2019-04-22T11:46:39.209Z,23.10
2019-04-22T11:49:43.990Z,23.10
2019-04-22T11:52:48.807Z,23.10
2019-04-22T11:55:54.889Z,23.00
2019-04-22T11:59:00.635Z,22.80
2019-04-22T12:02:06.745Z,22.50
2019-04-22T12:05:11.987Z,22.20
2019-04-22T12:08:17.344Z,21.80
2019-04-22T12:11:22.888Z,21.70
2019-04-22T12:14:27.751Z,21.50
2019-04-22T12:17:32.175Z,21.30
2019-04-22T12:20:37.212Z,21.10
2019-04-22T12:23:43.295Z,20.90
2019-04-22T12:26:48.403Z,20.60
2019-04-22T12:29:53.356Z,20.50
2019-04-22T12:32:58.142Z,20.30
2019-04-22T12:36:04.521Z,20.10
2019-04-22T12:39:09.756Z,19.90
2019-04-22T12:42:15.353Z,19.80
2019-04-22T12:45:20.520Z,19.60
2019-04-22T12:48:25.433Z,19.50
2019-04-22T12:51:31.177Z,19.30
2019-04-22T12:54:37.315Z,19.40
2019-04-22T12:57:42.814Z,19.40
2019-04-22T13:00:48.419Z,19.20
2019-04-22T13:03:58.838Z,19.10
2019-04-22T13:07:01.825Z,19.00
2019-04-22T13:10:10.081Z,18.80
2019-04-22T13:13:15.726Z,18.90
2019-04-22T13:16:20.700Z,18.80
2019-04-22T13:19:28.052Z,18.80
2019-04-22T13:22:32.608Z,18.90
2019-04-22T13:25:38.783Z,18.90
2019-04-22T13:28:45.422Z,18.80
2019-04-22T13:31:50.842Z,18.80
2019-04-22T13:34:59.270Z,18.80
2019-04-22T13:38:01.450Z,18.90
2019-04-22T13:41:20.481Z,18.90
2019-04-22T13:44:12.732Z,18.70
2019-04-22T13:47:34.809Z,18.70
2019-04-22T13:54:29.622Z,18.60
2019-04-22T13:56:55.490Z,18.60
2019-04-22T13:59:48.632Z,18.50
2019-04-22T14:02:58.266Z,18.50
2019-04-22T14:06:04.752Z,18.40
2019-04-22T14:09:09.555Z,18.20
2019-04-22T14:12:16.320Z,18.10
2019-04-22T14:15:22.229Z,18.10
2019-04-22T14:18:26.722Z,18.10
2019-04-22T14:21:32.554Z,17.90
2019-04-22T14:24:38.469Z,17.80
2019-04-22T14:27:51.387Z,17.80
2019-04-22T14:30:50.503Z,17.70
2019-04-22T14:33:59.120Z,17.60
2019-04-22T14:37:01.500Z,17.60
2019-04-22T14:40:09.247Z,17.50
2019-04-22T14:43:37.529Z,17.50
2019-04-22T14:46:53.590Z,17.40
2019-04-22T14:49:47.413Z,17.40
2019-04-22T14:52:50.690Z,17.30
2019-04-22T14:55:38.491Z,17.20
2019-04-22T14:58:44.848Z,17.10
2019-04-22T15:01:49.778Z,17.30
2019-04-22T15:04:54.401Z,17.10
2019-04-22T15:07:59.139Z,17.10
2019-04-22T15:11:06.303Z,16.90
2019-04-22T15:14:11.642Z,17.00
2019-04-22T15:17:36.745Z,16.90
2019-04-22T15:20:56.426Z,16.80
2019-04-22T15:24:20.600Z,16.80
2019-04-22T15:27:28.808Z,16.80
2019-04-22T15:30:31.179Z,16.70
2019-04-22T15:33:35.493Z,16.70
2019-04-22T15:36:40.059Z,16.70
2019-04-22T15:39:45.663Z,16.80
2019-04-22T15:42:50.749Z,16.80
2019-04-22T15:45:55.195Z,16.70
2019-04-22T15:49:00.031Z,16.70
2019-04-22T15:52:06.096Z,16.60
2019-04-22T15:55:10.973Z,16.60
2019-04-22T15:58:15.523Z,16.60
2019-04-22T16:01:27.491Z,16.70
2019-04-22T16:04:26.274Z,16.70
2019-04-22T16:07:31.869Z,16.60
2019-04-22T16:10:37.744Z,16.60
2019-04-22T16:13:42.488Z,16.70
2019-04-22T16:16:48.261Z,16.60
2019-04-22T16:19:53.214Z,16.50
2019-04-22T16:23:16.185Z,16.50
2019-04-22T16:26:30.564Z,16.50
2019-04-22T16:29:34.955Z,16.50
2019-04-22T16:32:39.307Z,16.40
2019-04-22T16:35:44.910Z,16.30
2019-04-22T16:38:50.855Z,16.30
2019-04-22T16:41:55.662Z,16.30
2019-04-22T16:45:01.919Z,16.30
2019-04-22T16:48:07.477Z,16.20
2019-04-22T16:51:12.003Z,16.20
2019-04-22T16:54:16.348Z,16.10
2019-04-22T16:57:21.870Z,16.10
2019-04-22T17:00:27.018Z,16.00
2019-04-22T17:03:54.476Z,15.90
2019-04-22T17:06:59.550Z,15.70
2019-04-22T17:10:04.045Z,15.70
2019-04-22T17:13:13.704Z,15.50
2019-04-22T17:16:15.677Z,15.50
2019-04-22T17:19:21.631Z,15.50
2019-04-22T17:22:26.216Z,15.50
2019-04-22T17:25:31.848Z,15.40
2019-04-22T17:28:37.467Z,15.30
2019-04-22T17:31:48.446Z,15.20
2019-04-22T17:34:47.998Z,15.00
2019-04-22T17:38:01.766Z,15.00
2019-04-22T17:41:11.624Z,14.90
2019-04-22T17:44:41.397Z,14.90
2019-04-22T17:47:47.227Z,14.70
2019-04-22T17:51:14.435Z,14.70
2019-04-22T17:54:07.003Z,14.50
2019-04-22T17:57:17.681Z,14.50
2019-04-22T18:00:25.409Z,14.50
2019-04-22T18:03:23.925Z,14.30
2019-04-22T18:06:44.058Z,14.30
2019-04-22T18:10:24.247Z,14.20
2019-04-22T18:13:14.093Z,14.10
2019-04-22T18:15:53.314Z,14.10
2019-04-22T18:18:59.609Z,14.00
2019-04-22T18:22:05.183Z,13.80
2019-04-22T18:25:07.515Z,13.80
2019-04-22T18:28:25.602Z,13.70
2019-04-22T18:31:17.334Z,13.70
2019-04-22T18:34:32.342Z,13.60
2019-04-22T18:37:46.991Z,13.60
2019-04-22T18:40:46.018Z,13.50
2019-04-22T18:44:01.778Z,13.50
2019-04-22T18:47:03.680Z,13.40
2019-04-22T18:50:03.497Z,13.40
2019-04-22T18:53:44.644Z,13.40
2019-04-22T18:56:46.609Z,13.20
2019-04-22T18:59:42.611Z,13.10
2019-04-22T19:02:50.740Z,13.10
2019-04-22T19:06:20.128Z,13.10
2019-04-22T19:09:20.460Z,13.00
2019-04-22T19:12:32.041Z,13.00
2019-04-22T19:15:33.634Z,12.80
2019-04-22T19:18:41.880Z,12.90
2019-04-22T19:21:46.909Z,12.80
2019-04-22T19:24:41.824Z,12.90
2019-04-22T19:27:53.492Z,12.70
2019-04-22T19:31:08.907Z,12.70
2019-04-22T19:34:09.366Z,12.70
2019-04-22T19:37:13.250Z,12.70
2019-04-22T19:40:34.146Z,12.60
2019-04-22T19:43:33.122Z,12.50
2019-04-22T19:46:34.514Z,12.50
2019-04-22T19:49:52.410Z,12.50
2019-04-22T19:52:50.069Z,12.40
2019-04-22T19:55:54.099Z,12.40
2019-04-22T19:58:57.396Z,12.30
2019-04-22T20:02:35.926Z,12.40
2019-04-22T20:05:50.974Z,12.20
2019-04-22T20:08:57.336Z,12.30
2019-04-22T20:12:00.597Z,12.20
2019-04-22T20:15:06.570Z,12.10
2019-04-22T20:21:27.055Z,12.30
2019-04-22T20:24:12.937Z,12.20
2019-04-22T20:27:31.498Z,12.20
2019-04-22T20:30:39.659Z,12.20
2019-04-22T20:33:50.921Z,12.30
2019-04-22T20:39:58.680Z,12.40
2019-04-22T20:43:09.113Z,12.40
2019-04-22T20:46:13.719Z,12.50
2019-04-22T20:49:21.795Z,12.50
2019-04-22T20:55:25.407Z,12.60
2019-04-22T20:58:32.992Z,12.60
2019-04-22T21:01:41.503Z,12.70
2019-04-22T21:04:39.331Z,12.60
2019-04-22T21:07:57.736Z,12.80
2019-04-22T21:10:52.155Z,12.80
2019-04-22T21:14:01.363Z,12.80
2019-04-22T21:17:13.550Z,12.90
2019-04-22T21:20:18.614Z,12.80
2019-04-22T21:23:21.646Z,12.80
2019-04-22T21:26:30.819Z,12.80
2019-04-22T21:29:32.154Z,12.80
2019-04-22T21:32:39.200Z,12.80
2019-04-22T21:35:59.140Z,12.90
2019-04-22T21:38:53.144Z,12.90
2019-04-22T21:41:58.835Z,12.90
2019-04-22T21:45:05.798Z,12.90
2019-04-22T21:48:26.483Z,12.90
2019-04-22T21:51:24.557Z,12.90
2019-04-22T21:54:28.581Z,12.90
2019-04-22T21:57:46.159Z,13.00
2019-04-22T22:01:16.972Z,13.00
2019-04-22T22:04:14.871Z,13.00
2019-04-22T22:07:05.282Z,12.90
2019-04-22T22:10:22.883Z,13.00
2019-04-22T22:13:30.162Z,13.00
2019-04-22T22:16:33.212Z,13.10
2019-04-22T22:19:46.920Z,13.10
2019-04-22T22:22:53.621Z,13.10
2019-04-22T22:25:53.803Z,13.10
2019-04-22T22:29:05.359Z,13.10
2019-04-22T22:32:11.668Z,13.00
2019-04-22T22:35:16.514Z,13.10
2019-04-22T22:38:19.596Z,13.20
2019-04-22T22:41:05.776Z,13.10
2019-04-22T22:44:18.244Z,13.10
2019-04-22T22:47:38.216Z,13.10
2019-04-22T22:50:44.588Z,13.00
2019-04-22T22:53:57.080Z,13.00
2019-04-22T22:57:17.737Z,12.90
2019-04-22T23:00:01.793Z,13.00
2019-04-22T23:03:36.707Z,12.90
2019-04-22T23:06:21.020Z,12.80
2019-04-22T23:09:19.817Z,12.90
2019-04-22T23:12:34.694Z,12.80
2019-04-22T23:15:27.775Z,12.70
2019-04-22T23:18:17.518Z,12.80
2019-04-22T23:21:31.313Z,12.60
2019-04-22T23:24:54.351Z,12.70
2019-04-22T23:28:19.434Z,12.80
2019-04-22T23:31:37.514Z,12.60
2019-04-22T23:34:49.599Z,12.60
2019-04-22T23:38:02.020Z,12.60
2019-04-22T23:41:05.357Z,12.50
2019-04-22T23:44:14.331Z,12.50
2019-04-22T23:47:16.422Z,12.40
2019-04-22T23:50:26.698Z,12.40
2019-04-22T23:53:57.500Z,12.40
2019-04-22T23:56:39.506Z,12.40
2019-04-22T23:59:53.368Z,12.30
